Flight Track Log - Related Links

Times and Time Zones

All times are in EST time to prevent confusion due to time zone crossing. See the CSN6873 flight status page for this flight to view local times or setup timezone preferences in your user account.

Time Position Orientation Groundspeed Altitude Reporting Facility
EST Latitude Longitude Course Direction KTS MPH feet Rate Location/Type
Wed 07:17:00 AM 43.5315 86.6542 238° Southwest  Level Estimated
Wed 07:18:00 AM 43.4841 86.5524 237° Southwest  Level Estimated
Wed 07:19:00 AM 43.4366 86.4508 237° Southwest  Level Estimated
Wed 07:20:00 AM 43.3891 86.3493 237° Southwest  Level Estimated
Wed 07:21:00 AM 43.3414 86.2480 237° Southwest  Level Estimated
Wed 07:22:00 AM 43.2937 86.1469 237° Southwest  Level Estimated
Wed 07:23:00 AM 43.2459 86.0459 237° Southwest  Level Estimated
Wed 07:24:00 AM 43.1980 85.9451 237° Southwest  Level Estimated
Wed 07:25:00 AM 43.1500 85.8444 237° Southwest  Level Estimated
Wed 07:26:00 AM 43.1020 85.7439 237° Southwest  Level Estimated
Wed 07:27:00 AM 43.0538 85.6435 237° Southwest  Level Estimated
Wed 07:28:00 AM 43.0055 85.5434 237° Southwest  Level Estimated
Wed 07:29:00 AM 42.9572 85.4433 237° Southwest  Level Estimated
Wed 07:30:00 AM 42.9088 85.3434 237° Southwest  Level Estimated
Wed 07:31:00 AM 42.8602 85.2437 236° Southwest  Level Estimated
Wed 07:32:00 AM 42.8116 85.1441 236° Southwest  Level Estimated
Wed 07:33:00 AM 42.7630 85.0447 236° Southwest  Level Estimated
Wed 07:34:00 AM 42.7142 84.9455 236° Southwest  Level Estimated
Wed 07:35:00 AM 42.6653 84.8464 236° Southwest  Level Estimated
Wed 07:36:00 AM 42.6164 84.7474 236° Southwest  Level Estimated
Wed 07:37:00 AM 42.5674 84.6486 236° Southwest  Level Estimated
Wed 07:38:00 AM 42.5182 84.5500 236° Southwest  Level Estimated
Wed 07:39:00 AM 42.4691 84.4515 236° Southwest  Level Estimated
Wed 07:40:00 AM 42.4198 84.3532 236° Southwest  Level Estimated
Wed 07:41:00 AM 42.3704 84.2550 236° Southwest  Level Estimated
Wed 07:42:00 AM 42.3209 84.1570 236° Southwest  Level Estimated
Wed 07:43:00 AM 42.2714 84.0592 236° Southwest  Level Estimated
Wed 07:44:00 AM 42.2218 83.9615 236° Southwest  Level Estimated
Wed 07:45:00 AM 42.1721 83.8639 236° Southwest  Level Estimated
Wed 07:46:00 AM 42.1223 83.7665 235° Southwest  Level Estimated
Wed 07:47:00 AM 42.0725 83.6693 235° Southwest  Level Estimated
Wed 07:48:00 AM 42.0225 83.5722 235° Southwest  Level Estimated
Wed 07:49:00 AM 41.9725 83.4752 235° Southwest  Level Estimated
Wed 07:50:00 AM 41.9224 83.3784 235° Southwest  Level Estimated
Wed 07:51:00 AM 41.8722 83.2818 235° Southwest  Level Estimated
Wed 07:52:00 AM 41.8219 83.1853 235° Southwest  Level Estimated
Wed 07:53:00 AM 41.7716 83.0890 235° Southwest  Level Estimated
Wed 07:54:00 AM 41.7211 82.9928 235° Southwest  Level Estimated
Wed 07:55:00 AM 41.7181 82.9869 235° Southwest  Level Estimated
Wed 07:56:00 AM 41.7181 82.9869 143° Southeast  Level Estimated
Wed 07:57:00 AM 41.7181 82.9869 143° Southeast  Level Estimated
Wed 07:58:00 AM 41.7181 82.9869 143° Southeast  Level Estimated
Wed 07:59:00 AM 41.7181 82.9869 143° Southeast  Level Estimated
Wed 08:00:00 AM 41.7181 82.9869 143° Southeast  Level Estimated
Wed 08:01:00 AM 41.7181 82.9869 143° Southeast  Level Estimated
Wed 08:02:00 AM 41.7181 82.9869 143° Southeast  Level Estimated
Wed 08:03:00 AM 41.7181 82.9869 143° Southeast  Level Estimated

Login

Don't have an account? Register now (free) for customized features, flight alerts, and more!